Time;durP1;ratioP1;P1;durP2;ratioP2;P2;SDS_P1;SDS_P2;PMS_P1;PMS_P2;Temp;Humidity;BMP_temperature;BMP_pressure;BME280_temperature;BME280_humidity;BME280_pressure;Samples;Min_cycle;Max_cycle;Signal;HPM_P1;HPM_P2
2023/06/07 00:00:09;;;;;;;5.40;4.53;;;15.80;90.50;;;;;;6249068;28;20050;-78
2023/06/07 00:03:11;;;;;;;4.72;4.30;;;15.80;90.60;;;;;;6250096;28;20050;-79
2023/06/07 00:06:13;;;;;;;5.93;4.85;;;15.80;90.70;;;;;;6251314;28;20111;-79
2023/06/07 00:09:16;;;;;;;4.55;3.80;;;15.90;90.80;;;;;;6251462;28;20072;-79
2023/06/07 00:12:18;;;;;;;5.45;4.65;;;15.90;90.90;;;;;;6250573;28;20045;-80
2023/06/07 00:15:20;;;;;;;6.97;4.13;;;15.90;91.00;;;;;;6249977;28;20046;-80
2023/06/07 00:18:21;;;;;;;4.07;3.67;;;15.90;91.10;;;;;;6251451;28;20064;-79
2023/06/07 00:21:23;;;;;;;4.90;4.43;;;16.00;91.20;;;;;;6250695;28;20056;-78
2023/06/07 00:24:26;;;;;;;5.07;3.90;;;16.00;91.30;;;;;;6251036;28;20061;-80
2023/06/07 00:27:28;;;;;;;8.63;4.72;;;16.00;91.30;;;;;;6250886;28;20049;-80
2023/06/07 00:30:29;;;;;;;8.40;5.32;;;16.00;91.40;;;;;;6250825;28;20519;-80
2023/06/07 00:33:31;;;;;;;4.43;3.83;;;16.00;91.50;;;;;;6249857;28;20056;-80
2023/06/07 00:36:34;;;;;;;4.45;4.00;;;16.00;91.60;;;;;;6242714;28;20041;-79
2023/06/07 00:39:37;;;;;;;7.93;4.82;;;16.00;91.70;;;;;;6238139;28;20081;-80
2023/06/07 00:42:38;;;;;;;6.18;4.88;;;16.00;91.70;;;;;;6227024;28;20056;-80
2023/06/07 00:45:40;;;;;;;6.15;4.07;;;16.00;91.80;;;;;;6225848;28;20408;-80
2023/06/07 00:48:42;;;;;;;4.95;4.55;;;15.90;91.90;;;;;;6225835;28;20528;-81
2023/06/07 00:51:47;;;;;;;4.40;3.72;;;15.90;92.00;;;;;;6226877;28;20581;-81
2023/06/07 00:54:51;;;;;;;6.90;6.20;;;15.90;92.20;;;;;;6226155;28;20397;-81
2023/06/07 00:57:53;;;;;;;5.10;4.57;;;15.80;92.30;;;;;;6226714;28;20454;-80
2023/06/07 01:00:57;;;;;;;5.50;4.90;;;15.80;92.50;;;;;;6226164;28;20050;-80
2023/06/07 01:04:00;;;;;;;6.38;4.93;;;15.70;92.60;;;;;;6226309;28;20045;-81
2023/06/07 01:07:02;;;;;;;5.82;5.07;;;15.70;93.10;;;;;;6225960;28;20136;-79
2023/06/07 01:10:06;;;;;;;11.88;5.30;;;15.70;93.20;;;;;;6226289;28;20074;-80
2023/06/07 01:13:09;;;;;;;10.20;4.80;;;15.70;93.10;;;;;;6251839;28;20053;-81
2023/06/07 01:16:11;;;;;;;10.13;4.70;;;15.70;93.20;;;;;;6251108;28;20052;-81
2023/06/07 01:19:18;;;;;;;7.43;5.78;;;15.70;93.30;;;;;;6241032;28;20049;-81
2023/06/07 01:22:24;;;;;;;7.07;5.07;;;15.70;93.40;;;;;;6222179;28;20050;-80
2023/06/07 01:25:27;;;;;;;6.75;4.63;;;15.60;93.40;;;;;;6202478;28;20062;-79
2023/06/07 01:28:33;;;;;;;7.35;4.75;;;15.60;93.60;;;;;;6201128;28;20050;-81
2023/06/07 01:31:36;;;;;;;7.43;5.07;;;15.60;93.70;;;;;;6201304;28;20069;-79
2023/06/07 01:34:39;;;;;;;5.90;5.40;;;15.60;93.80;;;;;;6201218;28;20042;-81
2023/06/07 01:37:42;;;;;;;5.47;4.97;;;15.50;93.90;;;;;;6205212;28;20041;-79
2023/06/07 01:40:46;;;;;;;6.28;4.97;;;15.50;94.10;;;;;;6225881;28;20045;-80
2023/06/07 01:43:49;;;;;;;8.05;4.90;;;15.50;94.20;;;;;;6225397;28;20053;-80
2023/06/07 01:46:50;;;;;;;5.78;5.28;;;15.50;94.30;;;;;;6225481;28;20042;-79
2023/06/07 01:49:52;;;;;;;7.40;5.55;;;15.50;94.40;;;;;;6226168;28;20053;-79
2023/06/07 01:52:54;;;;;;;7.32;5.03;;;15.50;94.50;;;;;;6226566;28;20050;-80
2023/06/07 01:56:05;;;;;;;7.18;5.80;;;15.50;94.60;;;;;;6225846;28;20133;-78
2023/06/07 01:59:15;;;;;;;7.72;5.35;;;15.50;94.80;;;;;;6225273;28;20057;-80
2023/06/07 02:02:28;;;;;;;6.25;5.65;;;15.50;94.90;;;;;;6224967;28;20049;-79
2023/06/07 02:05:34;;;;;;;8.95;7.15;;;15.40;94.90;;;;;;6225331;28;20042;-81
2023/06/07 02:08:40;;;;;;;5.63;5.13;;;15.40;95.00;;;;;;6225478;28;20053;-79
2023/06/07 02:11:44;;;;;;;5.47;4.97;;;15.40;95.10;;;;;;6224072;28;20050;-79
2023/06/07 02:14:45;;;;;;;6.10;5.47;;;15.30;95.20;;;;;;6224948;28;20046;-78
2023/06/07 02:17:57;;;;;;;6.57;5.90;;;15.30;95.30;;;;;;6224482;28;20096;-80
2023/06/07 02:20:59;;;;;;;6.32;5.72;;;15.20;95.50;;;;;;6221975;28;20436;-79
2023/06/07 02:24:00;;;;;;;6.90;6.30;;;15.20;95.60;;;;;;6202199;28;20046;-80
2023/06/07 02:27:04;;;;;;;6.68;5.70;;;15.10;95.70;;;;;;6200625;28;20050;-79
2023/06/07 02:30:07;;;;;;;6.70;5.82;;;15.10;95.90;;;;;;6201884;28;20050;-79
2023/06/07 02:33:13;;;;;;;5.95;5.28;;;15.00;96.10;;;;;;6201691;28;20060;-80
2023/06/07 02:36:15;;;;;;;6.88;6.25;;;14.90;96.20;;;;;;6201205;28;20046;-80
2023/06/07 02:39:17;;;;;;;6.60;5.45;;;14.90;96.20;;;;;;6199982;28;20053;-81
2023/06/07 02:42:20;;;;;;;6.70;5.68;;;14.80;96.30;;;;;;6200892;28;20058;-79
2023/06/07 02:45:21;;;;;;;5.60;5.10;;;14.70;96.40;;;;;;6201284;28;20046;-79
2023/06/07 02:48:23;;;;;;;8.25;6.60;;;14.60;96.50;;;;;;6200824;28;20046;-79
2023/06/07 02:51:25;;;;;;;5.88;5.40;;;14.60;96.70;;;;;;6200360;28;20421;-79
2023/06/07 02:54:26;;;;;;;7.50;5.60;;;14.50;96.90;;;;;;6200694;28;20054;-80
2023/06/07 02:57:29;;;;;;;6.35;5.85;;;14.40;97.00;;;;;;6200561;28;20466;-79
2023/06/07 03:00:32;;;;;;;5.78;5.32;;;14.30;97.10;;;;;;6200182;28;20050;-79
2023/06/07 03:03:34;;;;;;;6.60;5.70;;;14.30;97.30;;;;;;6198785;28;20414;-78
2023/06/07 03:06:41;;;;;;;6.82;6.20;;;14.20;97.40;;;;;;6202761;28;20201;-80
2023/06/07 03:09:43;;;;;;;6.60;5.85;;;14.20;97.50;;;;;;6207453;28;20046;-81
2023/06/07 03:12:46;;;;;;;6.93;5.75;;;14.20;97.70;;;;;;6207822;28;20046;-78
2023/06/07 03:15:48;;;;;;;7.13;6.50;;;14.10;97.70;;;;;;6208077;28;20072;-81
2023/06/07 03:18:50;;;;;;;6.55;4.97;;;14.10;97.90;;;;;;6207804;28;20049;-79
2023/06/07 03:21:53;;;;;;;8.02;6.38;;;14.10;98.10;;;;;;6206497;28;20182;-79
2023/06/07 03:24:57;;;;;;;7.10;6.47;;;14.00;98.20;;;;;;6205231;28;20497;-80
2023/06/07 03:28:00;;;;;;;8.02;7.22;;;14.00;98.30;;;;;;6221603;28;20057;-80
2023/06/07 03:31:02;;;;;;;18.92;6.18;;;13.90;98.50;;;;;;6229792;28;20096;-80
2023/06/07 03:34:03;;;;;;;6.60;6.00;;;14.00;98.80;;;;;;6232060;28;20050;-79
2023/06/07 03:37:06;;;;;;;7.05;6.40;;;14.00;98.70;;;;;;6228376;28;20050;-78
2023/06/07 03:40:08;;;;;;;7.88;7.07;;;14.00;99.10;;;;;;6228554;28;20133;-78
2023/06/07 03:43:11;;;;;;;6.85;6.25;;;14.10;98.90;;;;;;6228923;28;20056;-80
2023/06/07 03:46:13;;;;;;;6.82;5.78;;;14.20;98.80;;;;;;6228221;28;20046;-79
2023/06/07 03:49:15;;;;;;;11.20;8.13;;;14.10;98.90;;;;;;6228968;28;20058;-79
2023/06/07 03:52:16;;;;;;;6.82;6.05;;;14.10;99.10;;;;;;6229137;28;20050;-80
2023/06/07 03:55:19;;;;;;;12.50;6.30;;;14.20;99.20;;;;;;6228773;28;20056;-80
2023/06/07 03:58:24;;;;;;;9.95;6.80;;;14.30;99.20;;;;;;6227891;28;20042;-79
2023/06/07 04:01:26;;;;;;;6.40;5.90;;;14.30;99.20;;;;;;6228798;28;20056;-79
2023/06/07 04:04:29;;;;;;;10.80;6.30;;;14.50;99.40;;;;;;6228829;28;20078;-80
2023/06/07 04:07:30;;;;;;;6.05;5.55;;;14.60;99.40;;;;;;6228699;28;20045;-78
2023/06/07 04:10:32;;;;;;;6.00;5.38;;;14.70;99.40;;;;;;6227269;28;20501;-79
2023/06/07 04:13:35;;;;;;;7.50;6.47;;;14.90;99.60;;;;;;6228582;28;20505;-78
2023/06/07 04:16:37;;;;;;;7.72;6.00;;;15.00;99.90;;;;;;6227421;28;20408;-78
2023/06/07 04:19:38;;;;;;;7.40;5.05;;;15.40;99.90;;;;;;6226452;28;20124;-80
2023/06/07 04:22:41;;;;;;;5.60;5.00;;;15.90;99.90;;;;;;6227320;28;20045;-79
2023/06/07 04:25:43;;;;;;;5.60;5.00;;;16.60;99.60;;;;;;6227775;28;20081;-79
2023/06/07 04:28:46;;;;;;;6.70;4.88;;;17.20;98.40;;;;;;6223384;28;20505;-79
2023/06/07 04:31:49;;;;;;;5.28;4.47;;;17.60;97.20;;;;;;6227295;28;20111;-81
2023/06/07 04:34:51;;;;;;;9.52;5.22;;;17.90;96.80;;;;;;6228774;28;20050;-79
2023/06/07 04:37:53;;;;;;;8.25;4.97;;;18.30;96.50;;;;;;6227866;28;20104;-79
2023/06/07 04:40:55;;;;;;;5.35;4.82;;;18.90;95.70;;;;;;6226717;28;20045;-79
2023/06/07 04:43:58;;;;;;;7.78;4.90;;;19.50;94.40;;;;;;6228696;28;20061;-80
2023/06/07 04:47:00;;;;;;;7.25;4.95;;;20.00;93.20;;;;;;6229418;28;20050;-80
2023/06/07 04:50:02;;;;;;;6.47;5.82;;;20.60;91.90;;;;;;6227975;28;20045;-78
2023/06/07 04:53:03;;;;;;;6.43;4.25;;;21.10;90.60;;;;;;6226867;28;20054;-79
2023/06/07 04:56:05;;;;;;;4.22;3.70;;;21.40;88.80;;;;;;6228143;28;20042;-80
2023/06/07 04:59:10;;;;;;;6.65;3.30;;;21.90;87.30;;;;;;6227414;28;20053;-79
2023/06/07 05:02:11;;;;;;;5.65;4.40;;;22.50;84.10;;;;;;6227726;28;20058;-80
2023/06/07 05:05:14;;;;;;;4.85;3.58;;;23.10;81.20;;;;;;6227573;28;20054;-82
2023/06/07 05:08:16;;;;;;;9.27;4.03;;;23.70;78.00;;;;;;6226169;28;20483;-79
2023/06/07 05:11:18;;;;;;;4.75;4.15;;;24.00;75.60;;;;;;6225947;28;20061;-81
2023/06/07 05:14:21;;;;;;;4.22;3.90;;;24.30;74.20;;;;;;6226703;28;20133;-81
2023/06/07 05:17:23;;;;;;;9.05;4.25;;;24.50;72.30;;;;;;6226695;28;20157;-79
2023/06/07 05:20:26;;;;;;;7.10;3.70;;;24.80;70.90;;;;;;6208835;28;20053;-80
2023/06/07 05:23:28;;;;;;;8.10;4.25;;;25.10;70.00;;;;;;6201879;28;20054;-80
2023/06/07 05:26:29;;;;;;;5.10;4.45;;;25.50;68.50;;;;;;6202364;28;20046;-81
2023/06/07 05:29:32;;;;;;;8.88;4.32;;;25.80;66.60;;;;;;6203454;28;20058;-80
2023/06/07 05:32:35;;;;;;;7.25;5.13;;;25.70;65.40;;;;;;6206642;28;20050;-81
2023/06/07 05:35:36;;;;;;;9.43;4.07;;;25.40;64.70;;;;;;6203979;28;20062;-80
2023/06/07 05:38:38;;;;;;;4.57;3.30;;;25.20;65.20;;;;;;6201993;28;20042;-80
2023/06/07 05:41:40;;;;;;;7.88;3.83;;;25.00;64.70;;;;;;6201560;28;20050;-78
2023/06/07 05:44:45;;;;;;;4.38;3.97;;;25.00;64.70;;;;;;6201560;28;20046;-79
2023/06/07 05:47:46;;;;;;;4.00;3.60;;;25.20;64.70;;;;;;6201915;28;20129;-81
2023/06/07 05:50:48;;;;;;;9.13;4.35;;;25.30;64.10;;;;;;6201395;28;20524;-79
2023/06/07 05:53:50;;;;;;;4.60;3.83;;;25.70;64.00;;;;;;6226002;28;20098;-80
2023/06/07 05:56:52;;;;;;;3.45;3.15;;;26.60;62.60;;;;;;6226521;28;20045;-82
2023/06/07 05:59:55;;;;;;;3.95;3.38;;;27.20;61.20;;;;;;6227523;28;20046;-81
2023/06/07 06:02:57;;;;;;;4.20;3.80;;;27.80;60.00;;;;;;6228585;28;20054;-79
2023/06/07 06:05:59;;;;;;;6.20;3.38;;;28.40;58.50;;;;;;6226686;28;20407;-81
2023/06/07 06:09:01;;;;;;;6.50;3.50;;;28.30;57.10;;;;;;6226432;28;20045;-80
2023/06/07 06:12:02;;;;;;;4.72;3.22;;;28.00;56.80;;;;;;6226791;28;20129;-79
2023/06/07 06:15:08;;;;;;;5.95;4.25;;;27.70;56.90;;;;;;6226768;28;20046;-81
2023/06/07 06:18:10;;;;;;;4.63;3.95;;;27.70;57.40;;;;;;6226051;28;20042;-77
2023/06/07 06:21:11;;;;;;;4.80;4.00;;;28.00;56.50;;;;;;6228935;28;20061;-78
2023/06/07 06:24:13;;;;;;;4.93;3.53;;;28.00;56.50;;;;;;6223699;28;20042;-78
2023/06/07 06:27:15;;;;;;;4.45;3.20;;;28.10;56.50;;;;;;6190950;28;20053;-78
2023/06/07 06:30:18;;;;;;;5.55;3.33;;;28.00;56.20;;;;;;6252017;28;20140;-77
2023/06/07 06:33:20;;;;;;;5.68;3.50;;;28.00;56.00;;;;;;6248523;28;20400;-77
2023/06/07 06:36:22;;;;;;;5.55;3.42;;;28.10;56.00;;;;;;6269769;28;20075;-76
2023/06/07 06:39:28;;;;;;;6.70;4.22;;;28.20;56.40;;;;;;6259900;28;20053;-78
2023/06/07 06:42:37;;;;;;;5.45;4.43;;;28.10;55.10;;;;;;6243542;28;20062;-78
2023/06/07 06:45:40;;;;;;;5.15;3.53;;;26.90;56.50;;;;;;6241192;28;20415;-77
2023/06/07 06:48:42;;;;;;;4.90;4.00;;;25.90;58.50;;;;;;6219566;28;20046;-78
2023/06/07 06:51:45;;;;;;;4.22;3.33;;;25.10;59.80;;;;;;6237264;28;20076;-77
2023/06/07 06:54:47;;;;;;;4.45;4.03;;;24.50;61.50;;;;;;6243002;28;20057;-78
2023/06/07 06:57:48;;;;;;;4.32;3.92;;;24.30;62.40;;;;;;6241255;28;20056;-77
2023/06/07 07:00:51;;;;;;;5.65;4.07;;;23.90;63.10;;;;;;6236907;28;20049;-76
2023/06/07 07:03:53;;;;;;;5.60;3.33;;;23.60;64.20;;;;;;6235567;28;20045;-77
2023/06/07 07:06:55;;;;;;;4.95;3.58;;;23.30;65.20;;;;;;6235983;28;20049;-76
2023/06/07 07:09:57;;;;;;;8.20;4.25;;;23.10;65.80;;;;;;6234552;28;20053;-77
2023/06/07 07:12:59;;;;;;;6.07;4.47;;;22.90;66.80;;;;;;6234019;28;20053;-75
2023/06/07 07:16:02;;;;;;;5.40;3.60;;;22.70;67.60;;;;;;6235419;28;20053;-75
2023/06/07 07:19:03;;;;;;;5.15;4.63;;;22.60;68.30;;;;;;6236514;28;20069;-76
2023/06/07 07:22:06;;;;;;;9.95;3.35;;;22.70;68.80;;;;;;6238885;28;20053;-75
2023/06/07 07:25:09;;;;;;;5.80;3.63;;;23.00;68.60;;;;;;6211182;28;20429;-77
2023/06/07 07:28:10;;;;;;;4.30;3.90;;;23.00;68.90;;;;;;6214712;28;20183;-76
2023/06/07 07:31:14;;;;;;;4.68;4.25;;;23.20;69.00;;;;;;6212220;28;20553;-78
2023/06/07 07:34:17;;;;;;;3.78;3.17;;;23.30;68.90;;;;;;6212769;28;21914;-78
2023/06/07 07:37:19;;;;;;;3.80;3.50;;;23.30;69.00;;;;;;6212936;28;20054;-76
2023/06/07 07:40:21;;;;;;;7.50;3.78;;;23.40;69.00;;;;;;6211771;28;20037;-76
2023/06/07 07:43:22;;;;;;;9.35;3.28;;;23.40;69.00;;;;;;6211168;28;20053;-77
2023/06/07 07:46:26;;;;;;;4.45;3.63;;;23.50;69.10;;;;;;6211857;28;20046;-77
2023/06/07 07:49:27;;;;;;;3.83;3.53;;;23.60;69.00;;;;;;6213444;28;20064;-79
2023/06/07 07:52:29;;;;;;;7.20;3.75;;;23.60;68.70;;;;;;6210860;28;20449;-76
2023/06/07 07:55:31;;;;;;;10.15;3.70;;;23.60;68.90;;;;;;6214021;28;20118;-77
2023/06/07 07:58:32;;;;;;;4.50;4.10;;;23.70;69.10;;;;;;6216498;28;20042;-77
2023/06/07 08:01:36;;;;;;;4.82;4.40;;;23.80;69.10;;;;;;6217848;28;20057;-77
2023/06/07 08:04:37;;;;;;;4.85;3.22;;;23.80;68.90;;;;;;6214335;28;20119;-78
2023/06/07 08:07:40;;;;;;;4.70;3.97;;;23.80;69.10;;;;;;6213804;28;20045;-78
2023/06/07 08:10:42;;;;;;;4.18;3.20;;;23.90;69.10;;;;;;6213169;28;20489;-77
2023/06/07 08:13:44;;;;;;;3.00;2.72;;;24.00;68.80;;;;;;6214778;28;20052;-77
2023/06/07 08:16:48;;;;;;;3.15;2.90;;;23.90;68.50;;;;;;6214222;28;20398;-77
2023/06/07 08:19:49;;;;;;;4.15;3.40;;;23.90;68.60;;;;;;6217044;28;20049;-77
2023/06/07 08:22:53;;;;;;;6.60;4.53;;;24.10;68.80;;;;;;6222772;28;21183;-77
2023/06/07 08:25:57;;;;;;;3.40;2.58;;;24.40;68.20;;;;;;6220324;28;20411;-78
2023/06/07 08:28:59;;;;;;;3.20;3.00;;;24.60;67.90;;;;;;6220318;28;20056;-76
2023/06/07 08:32:02;;;;;;;2.58;2.38;;;24.70;67.20;;;;;;6233074;28;20037;-77
2023/06/07 08:35:04;;;;;;;2.50;2.30;;;24.80;67.60;;;;;;6244448;28;20523;-77
2023/06/07 08:38:06;;;;;;;2.80;2.60;;;25.10;67.30;;;;;;6250217;28;20050;-78
2023/06/07 08:41:08;;;;;;;2.78;2.53;;;25.40;66.50;;;;;;6250791;28;20045;-77
2023/06/07 08:44:10;;;;;;;2.95;2.65;;;25.60;65.80;;;;;;6255168;28;20502;-78
2023/06/07 08:47:14;;;;;;;3.67;2.45;;;25.50;65.20;;;;;;6246990;28;20053;-79
2023/06/07 08:50:18;;;;;;;3.35;1.75;;;25.20;65.50;;;;;;6242475;28;20049;-78
2023/06/07 08:53:27;;;;;;;2.13;2.00;;;25.30;65.10;;;;;;6216374;28;20056;-78
2023/06/07 08:56:31;;;;;;;3.50;2.65;;;25.40;64.80;;;;;;6224865;28;20049;-78
2023/06/07 08:59:34;;;;;;;5.75;2.40;;;25.50;64.90;;;;;;6219877;28;20045;-78
2023/06/07 09:02:38;;;;;;;3.33;2.53;;;25.70;64.70;;;;;;6224425;28;20052;-77
2023/06/07 09:05:39;;;;;;;2.88;1.92;;;25.60;64.60;;;;;;6219787;28;20416;-76
2023/06/07 09:08:41;;;;;;;2.53;1.60;;;25.90;64.10;;;;;;6218981;28;20819;-77
2023/06/07 09:11:43;;;;;;;2.30;2.10;;;26.20;63.70;;;;;;6222921;28;20519;-78
2023/06/07 09:14:47;;;;;;;2.63;2.42;;;26.40;62.90;;;;;;6222347;28;20144;-78
2023/06/07 09:17:55;;;;;;;2.42;1.83;;;26.60;62.80;;;;;;6224867;28;20050;-77
2023/06/07 09:20:57;;;;;;;1.70;1.60;;;26.70;61.60;;;;;;6223226;28;20424;-78
2023/06/07 09:24:00;;;;;;;1.92;1.40;;;26.50;61.10;;;;;;6222082;28;20060;-77
2023/06/07 09:27:03;;;;;;;2.20;1.88;;;26.50;61.30;;;;;;6222198;28;20049;-78
2023/06/07 09:30:07;;;;;;;1.70;1.60;;;26.80;61.00;;;;;;6219009;28;20509;-78
2023/06/07 09:33:26;;;;;;;1.48;1.38;;;27.10;60.20;;;;;;6222910;28;20060;-76
2023/06/07 09:36:29;;;;;;;1.35;1.25;;;26.90;59.70;;;;;;6220817;28;20076;-77
2023/06/07 09:39:32;;;;;;;3.90;1.42;;;27.00;59.50;;;;;;6229661;28;20128;-76
2023/06/07 09:42:34;;;;;;;1.63;1.40;;;26.90;59.30;;;;;;6234845;28;20076;-77
2023/06/07 09:45:36;;;;;;;3.28;1.15;;;26.50;59.40;;;;;;6236987;28;20041;-77
2023/06/07 09:48:46;;;;;;;1.88;1.40;;;26.60;60.10;;;;;;6237737;28;20420;-77
2023/06/07 09:51:48;;;;;;;1.42;1.13;;;27.00;59.80;;;;;;6238718;28;23447;-76
2023/06/07 09:54:49;;;;;;;1.55;1.45;;;27.30;59.50;;;;;;6237186;28;20428;-80
2023/06/07 09:57:51;;;;;;;1.73;1.63;;;27.30;59.20;;;;;;6246856;28;20044;-79
2023/06/07 10:00:55;;;;;;;1.25;1.15;;;27.40;58.70;;;;;;6242167;28;20049;-76
2023/06/07 10:03:59;;;;;;;3.30;1.23;;;27.10;58.50;;;;;;6246190;28;20047;-77
2023/06/07 10:07:02;;;;;;;1.65;1.30;;;26.90;59.10;;;;;;6245109;28;20124;-77
2023/06/07 10:10:05;;;;;;;2.65;1.50;;;26.80;58.90;;;;;;6224838;28;20054;-77
2023/06/07 10:13:11;;;;;;;1.52;1.42;;;26.50;59.50;;;;;;6225910;28;20163;-78
2023/06/07 10:16:18;;;;;;;2.72;1.33;;;26.40;59.80;;;;;;6225230;28;20417;-78
2023/06/07 10:19:25;;;;;;;1.33;1.23;;;26.50;59.70;;;;;;6223816;28;20049;-77
2023/06/07 10:22:31;;;;;;;0.93;0.93;;;26.90;59.50;;;;;;6224749;28;22232;-77
2023/06/07 10:25:40;;;;;;;1.88;1.63;;;27.30;58.50;;;;;;6225731;28;20056;-77
2023/06/07 10:28:47;;;;;;;1.30;1.17;;;27.70;57.80;;;;;;6247579;28;20041;-77
2023/06/07 10:32:01;;;;;;;1.35;1.00;;;27.90;56.80;;;;;;6248831;28;20543;-78
2023/06/07 10:35:06;;;;;;;1.15;1.10;;;28.20;56.60;;;;;;6248920;28;20052;-77
2023/06/07 10:38:08;;;;;;;2.10;1.10;;;28.60;56.00;;;;;;6248483;28;20049;-78
2023/06/07 10:41:10;;;;;;;1.13;1.02;;;29.20;55.00;;;;;;6249680;28;20249;-77
2023/06/07 10:44:12;;;;;;;2.50;1.17;;;29.60;53.60;;;;;;6248897;28;20082;-78
2023/06/07 10:47:27;;;;;;;1.00;0.90;;;29.50;53.00;;;;;;6249019;28;20045;-78
2023/06/07 10:50:49;;;;;;;1.38;1.25;;;29.20;53.40;;;;;;6249535;28;20044;-78
2023/06/07 10:53:52;;;;;;;2.47;1.77;;;29.60;53.30;;;;;;6248850;28;20057;-77
2023/06/07 10:56:54;;;;;;;1.27;1.10;;;29.90;53.10;;;;;;6247781;28;20049;-77
2023/06/07 11:00:26;;;;;;;3.30;1.35;;;30.20;52.50;;;;;;6247861;28;20054;-78
2023/06/07 11:03:43;;;;;;;0.98;0.90;;;30.10;52.10;;;;;;6248270;28;20052;-78
2023/06/07 11:07:17;;;;;;;1.23;1.13;;;30.10;51.70;;;;;;6227586;28;20042;-77
2023/06/07 11:10:35;;;;;;;3.13;1.70;;;30.00;51.50;;;;;;6235974;28;20045;-78
2023/06/07 11:14:00;;;;;;;;;;;30.00;51.40;;;;;;6240238;28;20106;-78
2023/06/07 11:17:04;;;;;;;7.13;1.50;;;29.80;52.00;;;;;;6236413;28;20572;-77
2023/06/07 11:20:07;;;;;;;2.05;1.90;;;30.10;51.40;;;;;;6242267;28;20124;-78
2023/06/07 11:23:27;;;;;;;1.67;1.58;;;30.40;51.10;;;;;;6242618;28;20049;-78
2023/06/07 11:26:35;;;;;;;4.68;1.75;;;30.70;50.30;;;;;;6235953;28;20650;-78
2023/06/07 11:29:37;;;;;;;2.30;1.70;;;31.00;49.80;;;;;;6243181;28;20060;-77
2023/06/07 11:32:39;;;;;;;1.63;1.52;;;31.10;49.70;;;;;;6244267;28;20041;-79
2023/06/07 11:35:41;;;;;;;1.20;1.00;;;31.30;49.20;;;;;;6243401;28;20064;-78
2023/06/07 11:38:49;;;;;;;1.42;1.25;;;31.60;48.50;;;;;;6245451;28;20423;-78
2023/06/07 11:41:51;;;;;;;0.98;0.95;;;31.60;47.30;;;;;;6248562;28;20057;-78
2023/06/07 11:44:53;;;;;;;2.42;1.40;;;31.80;46.90;;;;;;6243576;28;20904;-77
2023/06/07 11:47:58;;;;;;;2.97;1.30;;;32.10;46.20;;;;;;6243747;28;20128;-78
2023/06/07 11:51:00;;;;;;;1.63;1.48;;;32.30;46.10;;;;;;6254151;28;20049;-79
2023/06/07 11:54:04;;;;;;;1.75;1.38;;;32.60;45.70;;;;;;6255913;28;20053;-79
2023/06/07 11:57:09;;;;;;;2.10;1.90;;;32.90;45.30;;;;;;6252889;28;20045;-79
2023/06/07 12:00:14;;;;;;;4.65;1.77;;;32.40;45.80;;;;;;6250417;28;20094;-78
2023/06/07 12:03:19;;;;;;;2.30;2.10;;;31.70;45.60;;;;;;6250208;28;20104;-78
2023/06/07 12:06:25;;;;;;;2.28;2.08;;;31.60;45.70;;;;;;6238749;28;20167;-78
2023/06/07 12:09:28;;;;;;;1.88;1.73;;;31.40;45.80;;;;;;6242593;28;20072;-78
2023/06/07 12:12:30;;;;;;;2.53;2.33;;;31.20;46.30;;;;;;6240948;28;20045;-78
2023/06/07 12:15:32;;;;;;;3.95;2.20;;;31.40;46.60;;;;;;6247022;28;20058;-79
2023/06/07 12:18:35;;;;;;;1.85;1.75;;;31.70;46.50;;;;;;6243234;28;20052;-79
2023/06/07 12:21:37;;;;;;;1.90;1.75;;;32.30;46.10;;;;;;6241542;28;20053;-78
2023/06/07 12:24:41;;;;;;;2.10;1.90;;;32.60;45.70;;;;;;6250766;28;20202;-78
2023/06/07 12:27:45;;;;;;;3.90;2.75;;;32.80;45.50;;;;;;6247772;28;20179;-78
2023/06/07 12:30:48;;;;;;;3.88;2.58;;;33.10;44.80;;;;;;6247178;28;20053;-77
2023/06/07 12:33:54;;;;;;;5.90;2.55;;;33.50;44.40;;;;;;6249152;28;20423;-80
2023/06/07 12:36:56;;;;;;;2.40;2.20;;;33.50;44.40;;;;;;6249918;28;20072;-78
2023/06/07 12:39:59;;;;;;;3.13;2.67;;;33.30;44.70;;;;;;6241646;28;20060;-78
2023/06/07 12:43:01;;;;;;;2.85;2.63;;;32.80;44.70;;;;;;6243130;28;20123;-78
2023/06/07 12:46:03;;;;;;;2.97;2.22;;;32.10;45.20;;;;;;6243569;28;20068;-80
2023/06/07 12:49:05;;;;;;;4.53;3.15;;;32.10;45.80;;;;;;6242839;28;20061;-80
2023/06/07 12:52:07;;;;;;;2.60;2.40;;;32.50;45.30;;;;;;6245383;28;20045;-79
2023/06/07 12:55:10;;;;;;;2.47;2.28;;;32.20;45.60;;;;;;6244603;28;20412;-79
2023/06/07 12:58:12;;;;;;;5.82;2.80;;;32.10;45.50;;;;;;6246421;28;20063;-78
2023/06/07 13:01:14;;;;;;;4.68;2.60;;;32.30;45.30;;;;;;6248223;28;20048;-79
2023/06/07 13:04:16;;;;;;;3.20;2.90;;;32.30;45.00;;;;;;6246478;28;20045;-80
2023/06/07 13:07:21;;;;;;;7.18;2.78;;;32.00;45.50;;;;;;6246327;28;20045;-79
2023/06/07 13:10:24;;;;;;;2.15;1.95;;;32.00;45.10;;;;;;6244668;28;20136;-79
2023/06/07 13:13:26;;;;;;;4.95;3.63;;;32.10;45.30;;;;;;6243504;28;20107;-78
2023/06/07 13:16:29;;;;;;;2.78;2.55;;;32.20;45.40;;;;;;6244342;28;20042;-79
2023/06/07 13:19:31;;;;;;;2.80;2.60;;;32.60;45.20;;;;;;6247682;28;20045;-78
2023/06/07 13:22:33;;;;;;;5.60;2.83;;;32.80;44.40;;;;;;6244613;28;20064;-79
2023/06/07 13:25:36;;;;;;;3.13;2.83;;;32.30;44.60;;;;;;6251914;28;20041;-78
2023/06/07 13:28:42;;;;;;;3.75;3.25;;;32.10;45.20;;;;;;6246276;28;20041;-78
2023/06/07 13:31:45;;;;;;;3.03;2.83;;;32.10;45.50;;;;;;6249703;28;20500;-79
2023/06/07 13:34:47;;;;;;;4.18;3.25;;;31.80;45.40;;;;;;6249318;28;20042;-78
2023/06/07 13:37:49;;;;;;;5.20;3.20;;;31.60;45.40;;;;;;6250109;28;20060;-78
2023/06/07 13:40:52;;;;;;;2.80;2.60;;;31.40;45.70;;;;;;6251200;28;20041;-79
2023/06/07 13:43:53;;;;;;;7.82;2.85;;;31.60;45.30;;;;;;6250607;28;20528;-79
2023/06/07 13:46:55;;;;;;;3.20;3.00;;;31.30;44.70;;;;;;6252347;28;22853;-77
2023/06/07 13:49:57;;;;;;;3.55;3.25;;;31.00;45.00;;;;;;6249278;28;20065;-79
2023/06/07 13:52:59;;;;;;;5.72;2.78;;;30.90;45.50;;;;;;6247251;28;20053;-79
2023/06/07 13:56:02;;;;;;;3.03;2.70;;;31.00;45.80;;;;;;6251401;28;20475;-78
2023/06/07 13:59:03;;;;;;;3.92;2.53;;;31.00;45.60;;;;;;6248546;28;20396;-79
2023/06/07 14:02:07;;;;;;;3.17;2.97;;;30.80;46.00;;;;;;6249643;28;20084;-78
2023/06/07 14:05:09;;;;;;;5.00;2.28;;;31.00;45.70;;;;;;6247365;28;20056;-78
2023/06/07 14:08:11;;;;;;;2.42;2.28;;;30.70;45.90;;;;;;6250362;28;20041;-79
2023/06/07 14:11:14;;;;;;;3.15;2.67;;;30.20;46.20;;;;;;6254202;28;20060;-78
2023/06/07 14:14:16;;;;;;;3.00;2.67;;;29.70;46.90;;;;;;6253129;28;20060;-80
2023/06/07 14:17:17;;;;;;;2.70;2.50;;;29.60;47.10;;;;;;6254601;28;20044;-79
2023/06/07 14:20:19;;;;;;;4.10;2.63;;;29.30;47.30;;;;;;6253394;28;20080;-79
2023/06/07 14:23:21;;;;;;;4.43;2.80;;;29.60;47.50;;;;;;6250627;28;20041;-79
2023/06/07 14:26:26;;;;;;;2.63;2.42;;;29.90;46.40;;;;;;6250318;28;20049;-80
2023/06/07 14:29:28;;;;;;;3.50;3.20;;;29.70;46.50;;;;;;6251250;28;20056;-80
2023/06/07 14:32:29;;;;;;;3.67;2.50;;;29.50;46.80;;;;;;6240663;28;20044;-79
2023/06/07 14:35:31;;;;;;;2.95;2.50;;;29.80;47.30;;;;;;6239286;28;20052;-81
2023/06/07 14:38:33;;;;;;;2.88;2.58;;;30.10;46.70;;;;;;6237462;28;20057;-79
2023/06/07 14:41:36;;;;;;;3.78;2.33;;;30.00;46.70;;;;;;6240050;28;20091;-79
2023/06/07 14:44:37;;;;;;;3.17;2.50;;;30.00;46.80;;;;;;6240121;28;20060;-80
2023/06/07 14:47:39;;;;;;;6.85;3.38;;;29.80;47.00;;;;;;6241039;28;20583;-80
2023/06/07 14:50:41;;;;;;;3.80;2.80;;;29.70;47.10;;;;;;6240720;28;20038;-81
2023/06/07 14:53:42;;;;;;;4.75;2.95;;;29.70;47.00;;;;;;6242706;28;20084;-79
2023/06/07 14:56:45;;;;;;;2.53;2.33;;;29.60;46.80;;;;;;6243360;28;20059;-80
2023/06/07 14:59:47;;;;;;;2.70;2.50;;;29.20;47.20;;;;;;6239275;28;20049;-79
2023/06/07 15:02:49;;;;;;;2.60;2.40;;;29.40;47.10;;;;;;6240783;28;20469;-79
2023/06/07 15:05:51;;;;;;;2.08;1.88;;;29.60;46.90;;;;;;6248970;28;20053;-79
2023/06/07 15:08:53;;;;;;;2.88;2.33;;;29.60;46.80;;;;;;6245012;28;20508;-78
2023/06/07 15:11:56;;;;;;;2.45;2.25;;;29.80;46.80;;;;;;6242659;28;20057;-78
2023/06/07 15:14:58;;;;;;;2.53;2.33;;;29.90;47.00;;;;;;6246408;28;20049;-78
2023/06/07 15:17:59;;;;;;;2.00;1.77;;;29.90;46.80;;;;;;6246688;28;20049;-79
2023/06/07 15:21:01;;;;;;;3.13;2.28;;;30.10;46.40;;;;;;6250547;28;20051;-80
2023/06/07 15:24:03;;;;;;;2.60;2.40;;;30.00;46.40;;;;;;6245086;28;20045;-80
2023/06/07 15:27:06;;;;;;;7.07;2.33;;;29.60;46.60;;;;;;6245637;28;20073;-80
2023/06/07 15:30:09;;;;;;;5.03;2.15;;;29.20;47.00;;;;;;6247024;28;20061;-78
2023/06/07 15:33:10;;;;;;;2.70;2.42;;;28.90;47.60;;;;;;6248323;28;20056;-81
2023/06/07 15:36:15;;;;;;;2.45;2.25;;;28.60;47.90;;;;;;6246347;28;20064;-78
2023/06/07 15:39:17;;;;;;;3.55;2.50;;;28.50;48.00;;;;;;6248494;28;20068;-80
2023/06/07 15:42:20;;;;;;;2.33;2.13;;;28.70;48.10;;;;;;6247271;28;20420;-78
2023/06/07 15:45:21;;;;;;;3.85;2.70;;;29.00;47.90;;;;;;6250529;28;20057;-77
2023/06/07 15:48:23;;;;;;;2.63;2.42;;;29.10;47.80;;;;;;6247969;28;23065;-77
2023/06/07 15:51:27;;;;;;;3.40;3.00;;;29.20;47.40;;;;;;6250481;28;20061;-79
2023/06/07 15:54:32;;;;;;;3.03;2.60;;;29.10;47.50;;;;;;6249345;28;20049;-77